Guéréda Airport

TD-0013 · 乍得

METAR TD-0013 · Guéréda Airport

16 七月 01:00 LT
1h
使用的METAR站距离机场808 km。
罗盘
风向 的 风向 的 风向 到 风向 290°
风: 3 kt, 1 beaufort

添加一条跑道以查看侧风和逆风信息。

添置 跑道
0 ft 1.000 2.000 3.000 4.000 5.000
Cloud Cloud Cloud Cloud Cloud Cloud
BKN 1.600
Cloud Cloud
FEW 4.000
METAR FTTJ 160000Z 29003KT 260V320 7000 BKN016 FEW040CB 23/23 Q1012 TEMPO TS

METAR Guéréda Airport - TD-0013

该字段位于乍得中。 该机场位于纬度14,56420和经度22,07495。 这个机场没有ICAO代码,我们使用TD-0013作为参考。 机场在N Djamena FIR中。

该航空气象观测是针对N'Djamena International Airport在2024年7月16日 01:00, 当地时间进行的。

机场观察

风向为290°,速度为3 kt。 风向在260°和320°之间变化。

可见度为7 km。

有碎云在1.600 ft的高度 和 几云 积雨云在4.000 ft的高度。 破损或更高的上限为1.600 ft。

温度和风寒是23 °C。 露点为23 °C,相对湿度为100%。 海平面上的气压为1012 hPa (QNH)。

发展趋势

  • 暂时的

    可变方向的风很小或没有。 重大天气:雷暴 。

白天

今天,太阳从05:10升起,在18:04降落。 这适用于Guéréda Airport,世界夏令时可能有所不同。 当地时间与世界标准时间之间的时差为+1 小时。 夏令时目前正在进行中。

公司介绍

我们没有关于这个机场的公司信息。

体会

到Vliegles.nl去找飞行课程,跳伞和其他飞行体验。 浏览页面,了解Guéréda Airport附近所有可用的活动。 你也可以使用搜索功能来寻找你所在地附近的特定飞行课程、跳伞或其他飞行体验。

乌云

1.600 ft BKN 碎云
4.000 ft FEW 几云 积雨云

温度 & 天气

温度 23 °C
露点 23 °C
相对湿度 100%
Kp-index 2 (0-9)

白天

日出
05:43 (3:42)
中午
12:06
日落
18:28

小工具

你想在你的网站上有一个关于Guéréda Airport的当前航空天气(METAR)的小部件吗?

显示HTML代码
报告变更